Time;durP1;ratioP1;P1;durP2;ratioP2;P2;SDS_P1;SDS_P2;PMS_P1;PMS_P2;Temp;Humidity;BMP_temperature;BMP_pressure;BME280_temperature;BME280_humidity;BME280_pressure;Samples;Min_cycle;Max_cycle;Signal;HPM_P1;HPM_P2
2021/08/24 00:01:17;;;;;;;18.75;12.60;;;22.60;81.10;;;;;;1872710;75;21491;-51
2021/08/24 00:03:47;;;;;;;17.50;12.88;;;22.60;81.10;;;;;;1872471;75;21031;-49
2021/08/24 00:06:16;;;;;;;18.57;13.32;;;22.60;81.20;;;;;;1872377;76;21063;-49
2021/08/24 00:08:46;;;;;;;18.05;12.58;;;22.60;81.20;;;;;;1872421;77;21071;-48
2021/08/24 00:11:15;;;;;;;20.68;13.62;;;22.60;81.20;;;;;;1872630;77;21132;-50
2021/08/24 00:13:44;;;;;;;22.25;13.83;;;22.60;81.20;;;;;;1872710;77;21576;-50
2021/08/24 00:16:17;;;;;;;20.90;13.98;;;22.60;81.80;;;;;;1872728;77;21022;-52
2021/08/24 00:18:46;;;;;;;19.27;13.32;;;22.60;81.20;;;;;;1872677;76;21086;-49
2021/08/24 00:21:16;;;;;;;22.73;13.83;;;22.70;81.60;;;;;;1872684;75;21109;-50
2021/08/24 00:23:45;;;;;;;18.57;12.93;;;22.70;81.50;;;;;;1872684;77;21164;-49
2021/08/24 00:26:14;;;;;;;19.20;12.98;;;22.70;81.50;;;;;;1872549;75;21101;-50
2021/08/24 00:28:44;;;;;;;20.08;14.05;;;22.70;81.50;;;;;;1872630;77;21100;-49
2021/08/24 00:31:13;;;;;;;17.60;13.08;;;22.80;81.70;;;;;;1872605;76;21031;-49
2021/08/24 00:33:43;;;;;;;20.17;13.65;;;22.80;81.70;;;;;;1872675;77;21462;-50
2021/08/24 00:36:16;;;;;;;24.30;14.35;;;22.80;81.80;;;;;;1872555;77;21023;-49
2021/08/24 00:38:46;;;;;;;19.50;14.47;;;22.80;81.40;;;;;;1872861;77;21038;-50
2021/08/24 00:41:16;;;;;;;21.00;13.60;;;22.80;81.10;;;;;;1872583;75;21066;-49
2021/08/24 00:43:47;;;;;;;18.85;13.20;;;22.80;81.10;;;;;;1872601;75;21043;-50
2021/08/24 00:46:39;;;;;;;20.40;14.43;;;22.80;81.00;;;;;;1872528;75;21003;-51
2021/08/24 00:49:19;;;;;;;19.50;14.28;;;22.70;81.20;;;;;;1872685;77;21027;-52
2021/08/24 00:51:51;;;;;;;18.17;13.72;;;22.60;81.30;;;;;;1872695;77;21022;-51
2021/08/24 00:54:24;;;;;;;17.02;13.40;;;22.60;81.60;;;;;;1872657;76;21055;-52
2021/08/24 00:57:08;;;;;;;23.12;13.08;;;22.60;81.90;;;;;;1872772;76;21104;-51
2021/08/24 00:59:38;;;;;;;16.47;12.90;;;22.60;82.10;;;;;;1873054;77;21473;-50
2021/08/24 01:02:13;;;;;;;19.40;13.65;;;22.50;81.90;;;;;;1872717;76;21007;-49
2021/08/24 01:04:43;;;;;;;21.73;14.45;;;22.50;82.00;;;;;;1872804;77;21030;-49
2021/08/24 01:07:18;;;;;;;21.82;13.90;;;22.40;82.00;;;;;;1872651;75;21075;-49
2021/08/24 01:09:53;;;;;;;17.32;13.48;;;22.40;82.20;;;;;;1871877;76;21019;-52
2021/08/24 01:12:45;;;;;;;17.45;13.18;;;22.40;82.50;;;;;;1872804;75;21067;-49
2021/08/24 01:15:35;;;;;;;19.17;12.93;;;22.40;82.60;;;;;;1872738;77;21074;-49
2021/08/24 01:18:25;;;;;;;18.12;12.70;;;22.40;82.70;;;;;;1865617;76;21102;-49
2021/08/24 01:21:03;;;;;;;21.85;12.82;;;22.50;82.80;;;;;;1825537;78;21109;-49
2021/08/24 01:24:01;;;;;;;17.27;13.68;;;22.50;82.60;;;;;;1860140;76;21113;-52
2021/08/24 01:26:42;;;;;;;16.80;12.98;;;22.60;82.30;;;;;;1872660;77;21093;-49
2021/08/24 01:29:19;;;;;;;23.70;13.25;;;22.50;82.20;;;;;;1868615;76;21031;-51
2021/08/24 01:32:03;;;;;;;22.55;13.35;;;22.50;82.50;;;;;;1872775;77;21105;-49
2021/08/24 01:34:42;;;;;;;15.50;12.68;;;22.50;82.70;;;;;;1873017;75;21108;-52
2021/08/24 01:37:30;;;;;;;18.73;13.10;;;22.50;82.70;;;;;;1872348;76;21062;-49
2021/08/24 01:40:08;;;;;;;16.65;12.63;;;22.50;82.80;;;;;;1872842;77;21054;-50
2021/08/24 01:42:39;;;;;;;17.05;13.08;;;22.60;82.90;;;;;;1872751;77;21067;-48
2021/08/24 01:45:17;;;;;;;17.17;12.93;;;22.60;83.00;;;;;;1872725;77;21011;-50
2021/08/24 01:47:49;;;;;;;19.77;13.48;;;22.60;83.00;;;;;;1872691;77;21063;-50
2021/08/24 01:50:23;;;;;;;18.07;13.10;;;22.70;82.90;;;;;;1872799;77;21031;-50
2021/08/24 01:52:55;;;;;;;17.50;14.07;;;22.70;82.80;;;;;;1872594;76;21540;-51
2021/08/24 01:55:27;;;;;;;21.20;14.18;;;22.60;82.60;;;;;;1872681;77;21548;-50
2021/08/24 01:57:59;;;;;;;18.25;13.43;;;22.60;82.70;;;;;;1872635;76;21042;-50
2021/08/24 02:00:30;;;;;;;17.35;12.95;;;22.60;82.80;;;;;;1872656;76;21070;-52
2021/08/24 02:03:01;;;;;;;18.92;13.48;;;22.60;82.80;;;;;;1872664;77;21094;-52
2021/08/24 02:05:33;;;;;;;18.80;13.53;;;22.50;83.10;;;;;;1871720;76;21038;-50
2021/08/24 02:08:05;;;;;;;18.62;13.48;;;22.50;83.20;;;;;;1872080;76;21116;-49
2021/08/24 02:10:35;;;;;;;17.70;12.47;;;22.50;83.30;;;;;;1872745;77;21465;-52
2021/08/24 02:13:06;;;;;;;20.68;14.15;;;22.50;83.40;;;;;;1872611;77;21070;-51
2021/08/24 02:15:47;;;;;;;16.60;13.15;;;22.50;83.20;;;;;;1872575;77;21078;-49
2021/08/24 02:18:18;;;;;;;17.98;14.58;;;22.40;83.30;;;;;;1872452;76;21026;-52
2021/08/24 02:20:50;;;;;;;19.57;14.63;;;22.40;83.20;;;;;;1872673;76;21031;-49
2021/08/24 02:23:23;;;;;;;17.25;13.38;;;22.30;82.70;;;;;;1872487;75;21102;-50
2021/08/24 02:25:55;;;;;;;18.87;12.35;;;22.20;82.80;;;;;;1872562;77;21027;-50
2021/08/24 02:28:30;;;;;;;14.68;12.93;;;22.20;83.20;;;;;;1872510;77;21031;-52
2021/08/24 02:31:02;;;;;;;17.17;11.78;;;22.20;83.50;;;;;;1872579;77;21081;-50
2021/08/24 02:33:34;;;;;;;19.12;13.10;;;22.20;83.70;;;;;;1872113;76;21437;-51
2021/08/24 02:36:04;;;;;;;20.60;13.65;;;22.20;83.70;;;;;;1871497;75;21465;-50
2021/08/24 02:38:36;;;;;;;21.50;13.78;;;22.30;83.50;;;;;;1872455;77;21113;-51
2021/08/24 02:41:11;;;;;;;17.15;13.58;;;22.30;83.30;;;;;;1872514;77;21027;-49
2021/08/24 02:43:46;;;;;;;20.95;13.13;;;22.30;83.40;;;;;;1872613;77;21130;-50
2021/08/24 02:46:24;;;;;;;16.35;12.60;;;22.30;83.40;;;;;;1872530;77;21160;-49
2021/08/24 02:48:56;;;;;;;17.05;12.70;;;22.30;83.20;;;;;;1872533;75;21062;-52
2021/08/24 02:51:27;;;;;;;20.40;14.00;;;22.30;83.10;;;;;;1872637;76;21101;-51
2021/08/24 02:54:11;;;;;;;20.48;14.23;;;22.30;83.60;;;;;;1872637;76;21039;-51
2021/08/24 02:56:41;;;;;;;16.83;13.67;;;22.20;82.80;;;;;;1872838;77;21488;-52
2021/08/24 02:59:11;;;;;;;22.85;15.13;;;22.10;82.80;;;;;;1872553;77;21104;-52
2021/08/24 03:01:40;;;;;;;19.52;14.58;;;22.00;83.10;;;;;;1872602;77;21102;-51
2021/08/24 03:04:10;;;;;;;18.98;14.28;;;22.00;83.60;;;;;;1872610;76;21038;-48
2021/08/24 03:06:42;;;;;;;20.05;13.65;;;22.00;83.90;;;;;;1872638;76;21097;-49
2021/08/24 03:09:14;;;;;;;20.95;13.85;;;22.00;83.80;;;;;;1872472;75;21136;-49
2021/08/24 03:11:52;;;;;;;21.65;13.50;;;22.10;83.70;;;;;;1872592;77;21100;-49
2021/08/24 03:14:30;;;;;;;19.02;14.68;;;22.10;83.60;;;;;;1872100;76;21070;-52
2021/08/24 03:17:02;;;;;;;23.35;14.65;;;22.20;83.60;;;;;;1872402;76;21101;-50
2021/08/24 03:19:33;;;;;;;19.05;13.05;;;22.20;83.30;;;;;;1872397;75;21104;-50
2021/08/24 03:22:04;;;;;;;20.40;14.90;;;22.30;83.20;;;;;;1872403;77;21084;-49
2021/08/24 03:24:35;;;;;;;17.85;13.83;;;22.30;83.20;;;;;;1872349;77;21044;-49
2021/08/24 03:27:08;;;;;;;22.98;15.68;;;22.40;83.10;;;;;;1872437;75;21121;-48
2021/08/24 03:29:37;;;;;;;20.57;14.53;;;22.30;82.70;;;;;;1872441;77;21027;-51
2021/08/24 03:32:08;;;;;;;24.65;15.08;;;22.30;82.60;;;;;;1872564;75;21039;-50
2021/08/24 03:34:38;;;;;;;23.20;15.55;;;22.30;82.70;;;;;;1872632;77;21071;-51
2021/08/24 03:37:07;;;;;;;21.75;14.35;;;22.30;82.90;;;;;;1872453;77;21035;-49
2021/08/24 03:39:37;;;;;;;22.05;13.30;;;22.30;83.10;;;;;;1872503;77;21034;-50
2021/08/24 03:42:06;;;;;;;21.40;13.90;;;22.30;83.20;;;;;;1872453;77;21185;-48
2021/08/24 03:44:36;;;;;;;22.67;14.60;;;22.30;83.30;;;;;;1872494;77;21078;-49
2021/08/24 03:47:05;;;;;;;15.50;12.07;;;22.40;83.30;;;;;;1872689;77;21114;-49
2021/08/24 03:49:36;;;;;;;17.48;12.53;;;22.40;83.50;;;;;;1872722;77;21186;-51
2021/08/24 03:52:05;;;;;;;18.12;12.55;;;22.50;83.50;;;;;;1872634;76;21035;-50
2021/08/24 03:54:34;;;;;;;19.23;13.28;;;22.50;83.40;;;;;;1872719;75;21110;-48
2021/08/24 03:57:04;;;;;;;23.83;13.43;;;22.60;83.40;;;;;;1872695;77;21039;-48
2021/08/24 03:59:34;;;;;;;18.85;12.85;;;22.70;83.30;;;;;;1872609;77;21078;-52
2021/08/24 04:02:05;;;;;;;17.92;13.20;;;22.80;83.20;;;;;;1872657;77;21031;-51
2021/08/24 04:04:34;;;;;;;19.60;12.75;;;22.90;82.90;;;;;;1872601;76;21097;-50
2021/08/24 04:07:04;;;;;;;19.20;14.30;;;22.90;82.80;;;;;;1872660;76;21035;-51
2021/08/24 04:09:34;;;;;;;27.45;15.43;;;22.90;82.80;;;;;;1872498;76;21760;-51
2021/08/24 04:12:04;;;;;;;21.15;15.55;;;23.00;82.70;;;;;;1872586;75;21117;-51
2021/08/24 04:14:33;;;;;;;24.65;14.95;;;23.00;82.60;;;;;;1872552;77;21026;-52
2021/08/24 04:17:04;;;;;;;19.95;15.30;;;23.10;82.40;;;;;;1872736;77;21090;-51
2021/08/24 04:19:33;;;;;;;24.92;14.83;;;23.10;82.40;;;;;;1872709;77;21050;-49
2021/08/24 04:22:04;;;;;;;24.25;15.50;;;23.20;82.30;;;;;;1872689;77;21047;-49
2021/08/24 04:24:33;;;;;;;20.05;15.68;;;23.20;82.10;;;;;;1872585;77;21035;-51
2021/08/24 04:27:03;;;;;;;23.85;15.63;;;23.20;81.70;;;;;;1872484;77;21027;-52
2021/08/24 04:29:32;;;;;;;25.08;16.27;;;23.20;81.60;;;;;;1872562;75;21003;-51
2021/08/24 04:32:04;;;;;;;19.87;15.85;;;23.20;81.50;;;;;;1872639;77;21031;-52
2021/08/24 04:34:34;;;;;;;23.80;16.52;;;23.30;81.60;;;;;;1872603;77;21007;-52
2021/08/24 04:37:03;;;;;;;25.57;17.30;;;23.20;81.30;;;;;;1872609;77;21003;-52
2021/08/24 04:39:34;;;;;;;25.27;16.48;;;23.20;81.10;;;;;;1872592;76;21050;-52
2021/08/24 04:42:03;;;;;;;26.20;17.05;;;23.20;81.20;;;;;;1872580;77;21089;-50
2021/08/24 04:44:32;;;;;;;31.07;17.52;;;23.20;81.00;;;;;;1872626;77;21035;-52
2021/08/24 04:47:02;;;;;;;32.10;20.48;;;23.30;80.90;;;;;;1872627;77;21027;-49
2021/08/24 04:49:31;;;;;;;21.33;16.85;;;23.30;80.70;;;;;;1872562;77;21152;-51
2021/08/24 04:52:01;;;;;;;26.10;18.05;;;23.30;80.60;;;;;;1872650;77;21559;-52
2021/08/24 04:54:33;;;;;;;35.73;19.35;;;23.30;80.60;;;;;;1872815;77;21039;-51
2021/08/24 04:57:04;;;;;;;26.57;17.60;;;23.40;80.80;;;;;;1872727;77;21023;-51
2021/08/24 04:59:34;;;;;;;22.25;16.62;;;23.40;80.80;;;;;;1872592;76;21035;-49
2021/08/24 05:02:03;;;;;;;23.07;16.17;;;23.40;80.80;;;;;;1872517;77;21046;-50
2021/08/24 05:04:33;;;;;;;25.57;18.15;;;23.40;80.70;;;;;;1872597;77;21054;-52
2021/08/24 05:07:03;;;;;;;25.60;17.52;;;23.40;80.50;;;;;;1872606;77;21027;-49
2021/08/24 05:09:34;;;;;;;30.62;18.80;;;23.40;80.70;;;;;;1872579;76;21055;-49
2021/08/24 05:12:03;;;;;;;31.65;19.25;;;23.50;80.70;;;;;;1872575;77;21027;-50
2021/08/24 05:14:33;;;;;;;25.15;17.42;;;23.50;80.40;;;;;;1872567;77;21087;-50
2021/08/24 05:17:02;;;;;;;34.15;17.02;;;23.50;80.40;;;;;;1872523;77;21012;-52
2021/08/24 05:19:32;;;;;;;31.77;18.25;;;23.60;80.40;;;;;;1872548;77;21147;-52
2021/08/24 05:22:01;;;;;;;28.42;18.52;;;23.60;80.20;;;;;;1872462;77;21007;-49
2021/08/24 05:24:31;;;;;;;45.90;27.60;;;23.70;80.00;;;;;;1872609;76;21140;-52
2021/08/24 05:27:00;;;;;;;80.28;39.48;;;23.80;79.80;;;;;;1872624;76;21031;-50
2021/08/24 05:29:29;;;;;;;61.68;32.98;;;23.90;79.40;;;;;;1872506;76;21089;-51
2021/08/24 05:31:59;;;;;;;48.50;26.93;;;24.00;79.40;;;;;;1872573;77;21477;-51
2021/08/24 05:34:28;;;;;;;41.20;24.32;;;24.10;79.10;;;;;;1872650;77;21152;-48
2021/08/24 05:36:57;;;;;;;39.10;20.25;;;24.20;79.00;;;;;;1872516;77;21074;-53
2021/08/24 05:39:27;;;;;;;39.05;21.57;;;24.30;78.60;;;;;;1872510;76;21066;-50
2021/08/24 05:41:56;;;;;;;31.23;19.05;;;24.30;78.30;;;;;;1872528;77;21035;-48
2021/08/24 05:44:26;;;;;;;29.00;17.95;;;24.40;78.00;;;;;;1872682;77;21011;-52
2021/08/24 05:46:55;;;;;;;21.00;15.70;;;24.50;77.70;;;;;;1872680;76;21035;-49
2021/08/24 05:49:25;;;;;;;33.60;18.25;;;24.50;77.80;;;;;;1872625;75;21003;-51
2021/08/24 05:51:54;;;;;;;32.10;17.40;;;24.60;77.70;;;;;;1872620;76;21093;-51
2021/08/24 05:54:23;;;;;;;39.35;18.45;;;24.60;77.70;;;;;;1872636;77;21030;-50
2021/08/24 05:56:53;;;;;;;35.58;21.62;;;24.70;77.60;;;;;;1872465;76;21063;-50
2021/08/24 05:59:22;;;;;;;32.83;20.90;;;24.80;77.50;;;;;;1872505;77;21003;-51
2021/08/24 06:01:52;;;;;;;28.12;18.27;;;24.90;77.30;;;;;;1872673;76;21023;-50
2021/08/24 06:04:23;;;;;;;47.65;22.48;;;24.90;76.90;;;;;;1872380;77;21007;-52
2021/08/24 06:06:52;;;;;;;38.38;22.10;;;25.00;76.70;;;;;;1872602;77;21058;-51
2021/08/24 06:09:22;;;;;;;34.53;21.57;;;25.10;76.60;;;;;;1876999;76;21052;-49
2021/08/24 06:11:52;;;;;;;40.60;22.07;;;25.20;76.20;;;;;;1893980;76;21057;-51
2021/08/24 06:14:23;;;;;;;24.02;17.48;;;25.20;75.90;;;;;;1894100;76;21101;-52
2021/08/24 06:16:57;;;;;;;26.02;17.07;;;25.20;75.50;;;;;;1894042;76;21014;-49
2021/08/24 06:19:25;;;;;;;31.10;19.02;;;25.30;75.00;;;;;;1893799;75;21034;-51
2021/08/24 06:21:55;;;;;;;28.42;17.55;;;25.30;75.00;;;;;;1893660;75;21731;-51
2021/08/24 06:24:25;;;;;;;28.73;18.05;;;25.40;74.90;;;;;;1894000;75;21032;-49
2021/08/24 06:26:54;;;;;;;23.87;17.45;;;25.50;74.60;;;;;;1894140;76;21007;-49
2021/08/24 06:29:23;;;;;;;27.95;18.27;;;25.60;74.50;;;;;;1894074;76;21118;-49
2021/08/24 06:31:55;;;;;;;28.62;17.40;;;25.60;74.30;;;;;;1894075;74;21113;-49
2021/08/24 06:34:25;;;;;;;28.80;18.07;;;25.80;73.60;;;;;;1894226;76;21143;-48
2021/08/24 06:36:54;;;;;;;26.52;17.10;;;25.70;73.10;;;;;;1894065;76;21022;-52
2021/08/24 06:39:23;;;;;;;22.52;17.10;;;25.70;73.10;;;;;;1894064;75;20998;-52
2021/08/24 06:41:53;;;;;;;24.80;15.63;;;25.70;73.30;;;;;;1894161;76;21007;-49
2021/08/24 06:44:22;;;;;;;22.85;15.80;;;25.80;73.50;;;;;;1894042;76;21034;-52
2021/08/24 06:46:52;;;;;;;30.30;17.67;;;25.80;72.90;;;;;;1894039;76;21046;-52
2021/08/24 06:49:21;;;;;;;21.35;15.90;;;25.90;72.90;;;;;;1894028;75;21026;-49
2021/08/24 06:51:51;;;;;;;18.50;15.50;;;25.90;72.70;;;;;;1894108;76;21096;-50
2021/08/24 06:54:20;;;;;;;23.52;16.40;;;25.90;72.70;;;;;;1894151;74;21034;-51
2021/08/24 06:56:49;;;;;;;22.27;17.62;;;26.00;72.70;;;;;;1894138;75;21026;-51
2021/08/24 06:59:19;;;;;;;20.75;15.28;;;26.00;72.30;;;;;;1894031;76;21066;-50
2021/08/24 07:01:48;;;;;;;21.70;15.70;;;26.10;72.30;;;;;;1894104;76;21129;-52
2021/08/24 07:04:18;;;;;;;31.20;16.85;;;26.20;72.50;;;;;;1894107;74;21092;-52
2021/08/24 07:06:50;;;;;;;21.02;16.20;;;26.20;72.20;;;;;;1894117;76;21034;-52
2021/08/24 07:09:19;;;;;;;16.30;11.93;;;26.20;72.20;;;;;;1894132;76;21128;-49
2021/08/24 07:11:49;;;;;;;19.70;13.83;;;26.30;72.40;;;;;;1873123;76;21114;-51
2021/08/24 07:14:18;;;;;;;18.73;13.00;;;26.30;72.20;;;;;;1872466;77;21063;-51
2021/08/24 07:16:48;;;;;;;19.07;14.35;;;26.30;72.10;;;;;;1872551;77;21097;-52
2021/08/24 07:19:17;;;;;;;18.50;13.20;;;26.30;72.30;;;;;;1872597;76;21019;-52
2021/08/24 07:21:47;;;;;;;18.52;12.13;;;26.40;71.90;;;;;;1872425;77;21031;-52
2021/08/24 07:24:16;;;;;;;21.10;11.70;;;26.40;72.60;;;;;;1870981;77;21035;-52
2021/08/24 07:26:45;;;;;;;22.52;14.23;;;26.50;72.40;;;;;;1871825;77;21069;-51
2021/08/24 07:29:15;;;;;;;16.93;12.35;;;26.50;72.10;;;;;;1871780;76;21031;-51
2021/08/24 07:31:45;;;;;;;17.00;12.28;;;26.60;72.10;;;;;;1871582;77;21137;-51
2021/08/24 07:34:15;;;;;;;13.85;10.50;;;26.50;72.10;;;;;;1871866;77;21129;-51
2021/08/24 07:36:45;;;;;;;21.37;13.88;;;26.60;72.00;;;;;;1871863;77;21042;-50
2021/08/24 07:39:14;;;;;;;21.57;14.18;;;26.60;72.00;;;;;;1871828;77;21035;-53
2021/08/24 07:41:43;;;;;;;14.90;11.53;;;26.60;72.20;;;;;;1871819;77;21007;-52
2021/08/24 07:44:13;;;;;;;14.07;11.43;;;26.70;72.30;;;;;;1871652;77;21148;-49
2021/08/24 07:46:42;;;;;;;14.30;10.95;;;26.70;72.00;;;;;;1871666;75;21463;-50
2021/08/24 07:49:12;;;;;;;14.93;12.23;;;26.60;72.30;;;;;;1871716;76;21070;-48
2021/08/24 07:51:42;;;;;;;19.05;13.58;;;26.60;72.50;;;;;;1871804;77;21086;-50
2021/08/24 07:54:11;;;;;;;18.57;13.50;;;26.60;72.60;;;;;;1871900;77;21066;-53
2021/08/24 07:56:41;;;;;;;19.02;13.53;;;26.70;72.80;;;;;;1871837;77;21075;-47
2021/08/24 07:59:11;;;;;;;21.33;13.58;;;26.70;73.00;;;;;;1871752;77;21098;-47
2021/08/24 08:01:40;;;;;;;19.15;12.85;;;26.80;72.90;;;;;;1871760;76;21128;-49
2021/08/24 08:04:10;;;;;;;22.37;14.20;;;27.00;72.70;;;;;;1871814;77;21082;-45
2021/08/24 08:06:40;;;;;;;20.60;13.70;;;27.10;72.50;;;;;;1871899;77;21168;-47
2021/08/24 08:09:09;;;;;;;16.57;13.05;;;27.20;72.50;;;;;;1871798;77;21075;-44
2021/08/24 08:11:39;;;;;;;17.62;12.80;;;27.20;71.80;;;;;;1871944;76;21110;-47
2021/08/24 08:14:12;;;;;;;16.30;10.28;;;27.20;71.50;;;;;;1871709;77;21663;-49
2021/08/24 08:16:40;;;;;;;17.67;12.35;;;27.30;71.40;;;;;;1871811;76;21554;-49
2021/08/24 08:19:10;;;;;;;14.33;11.90;;;27.30;72.20;;;;;;1871925;75;21043;-49
2021/08/24 08:21:40;;;;;;;16.37;10.20;;;27.40;71.60;;;;;;1871833;77;21082;-48
2021/08/24 08:24:10;;;;;;;22.73;13.32;;;27.40;71.10;;;;;;1871698;75;21055;-47
2021/08/24 08:26:40;;;;;;;21.17;15.48;;;27.40;70.90;;;;;;1871260;77;21043;-47
2021/08/24 08:29:11;;;;;;;18.98;12.03;;;27.50;70.90;;;;;;1871116;77;21066;-50
2021/08/24 08:31:42;;;;;;;17.85;12.25;;;27.50;71.30;;;;;;1870847;77;21418;-49
2021/08/24 08:34:12;;;;;;;20.20;13.43;;;27.60;71.00;;;;;;1871187;77;21077;-50
2021/08/24 08:36:41;;;;;;;14.90;11.90;;;27.60;70.80;;;;;;1871869;77;21039;-48
2021/08/24 08:39:11;;;;;;;12.68;10.53;;;27.60;71.10;;;;;;1872256;77;21481;-49
2021/08/24 08:41:43;;;;;;;11.63;8.18;;;27.70;70.90;;;;;;1871918;77;21034;-46
2021/08/24 08:44:33;;;;;;;11.83;8.10;;;27.80;70.30;;;;;;1870449;76;22139;-47
2021/08/24 08:47:21;;;;;;;11.73;8.80;;;27.90;69.60;;;;;;1871664;75;21043;-49
2021/08/24 08:49:53;;;;;;;10.18;8.53;;;27.90;69.10;;;;;;1871692;76;21179;-48
2021/08/24 08:52:34;;;;;;;13.83;9.00;;;28.00;68.40;;;;;;1871750;75;21109;-46
2021/08/24 08:55:26;;;;;;;14.00;8.15;;;28.00;68.70;;;;;;1872005;77;22171;-48
2021/08/24 08:58:06;;;;;;;12.03;8.03;;;28.00;67.70;;;;;;1871809;75;21104;-45
2021/08/24 09:00:49;;;;;;;16.85;8.88;;;27.80;67.80;;;;;;1871889;75;21047;-46
2021/08/24 09:03:26;;;;;;;10.65;7.67;;;27.80;68.00;;;;;;1871960;77;21137;-44
2021/08/24 09:05:57;;;;;;;9.80;6.30;;;27.80;68.30;;;;;;1871611;75;21046;-45
2021/08/24 09:08:28;;;;;;;10.82;7.40;;;27.90;67.40;;;;;;1871994;76;21784;-44
2021/08/24 09:10:59;;;;;;;10.38;7.20;;;27.90;67.40;;;;;;1874105;76;21171;-48
2021/08/24 09:13:42;;;;;;;7.40;6.60;;;28.10;67.70;;;;;;1893460;76;21104;-48
2021/08/24 09:16:17;;;;;;;10.15;7.50;;;28.20;67.50;;;;;;1893155;75;21563;-48
2021/08/24 09:18:49;;;;;;;10.23;7.95;;;28.30;66.30;;;;;;1893238;75;21469;-44
2021/08/24 09:21:23;;;;;;;12.53;8.28;;;28.30;66.30;;;;;;1893267;75;21061;-48
2021/08/24 09:23:54;;;;;;;10.50;9.15;;;28.40;66.60;;;;;;1893524;75;22081;-48
2021/08/24 09:26:26;;;;;;;11.50;7.55;;;28.50;66.20;;;;;;1893402;76;21085;-49
2021/08/24 09:28:56;;;;;;;11.30;9.38;;;28.50;65.60;;;;;;1892473;75;21482;-45
2021/08/24 09:31:25;;;;;;;11.45;8.53;;;28.50;65.20;;;;;;1893236;76;21084;-46
2021/08/24 09:33:55;;;;;;;11.50;7.62;;;28.50;64.90;;;;;;1893507;76;21088;-49
2021/08/24 09:36:24;;;;;;;10.63;8.10;;;28.50;64.80;;;;;;1893253;76;21034;-48
2021/08/24 09:38:56;;;;;;;9.95;7.95;;;28.50;64.70;;;;;;1893492;76;21089;-45
2021/08/24 09:41:31;;;;;;;12.68;8.85;;;28.50;64.70;;;;;;1892607;75;21549;-47
2021/08/24 09:44:19;;;;;;;12.10;8.78;;;28.60;64.20;;;;;;1893238;76;21081;-50
2021/08/24 09:46:50;;;;;;;15.60;8.88;;;28.50;64.20;;;;;;1893494;76;21018;-47
2021/08/24 09:49:27;;;;;;;9.73;8.10;;;28.50;64.70;;;;;;1893489;76;21061;-49
2021/08/24 09:52:02;;;;;;;9.90;7.17;;;28.60;64.60;;;;;;1891727;75;21566;-48
2021/08/24 09:54:41;;;;;;;14.18;7.30;;;28.60;63.50;;;;;;1893491;76;21051;-49
2021/08/24 09:57:18;;;;;;;11.97;7.83;;;28.60;63.40;;;;;;1893231;75;21117;-51
2021/08/24 09:59:50;;;;;;;9.65;8.25;;;28.60;63.40;;;;;;1893322;74;21120;-50
2021/08/24 10:02:38;;;;;;;11.10;7.90;;;28.60;63.40;;;;;;1892706;75;21188;-48
2021/08/24 10:05:11;;;;;;;8.48;7.58;;;28.70;63.00;;;;;;1893315;74;21095;-50
2021/08/24 10:07:43;;;;;;;10.08;7.70;;;28.70;63.10;;;;;;1893334;76;21097;-45
2021/08/24 10:10:30;;;;;;;11.53;7.58;;;28.70;63.10;;;;;;1892601;75;21484;-49
2021/08/24 10:13:02;;;;;;;10.88;8.18;;;28.80;63.10;;;;;;1878589;76;21204;-49
2021/08/24 10:15:34;;;;;;;9.68;8.68;;;28.90;63.20;;;;;;1870097;76;21078;-49
2021/08/24 10:18:12;;;;;;;8.95;7.33;;;28.90;63.00;;;;;;1872230;77;21047;-48
2021/08/24 10:20:56;;;;;;;8.55;6.92;;;29.00;62.40;;;;;;1871891;77;21106;-49
2021/08/24 10:23:37;;;;;;;9.95;8.38;;;29.00;61.90;;;;;;1872072;77;21035;-48
2021/08/24 10:26:11;;;;;;;9.23;7.90;;;29.00;61.60;;;;;;1871649;76;21031;-49
2021/08/24 10:28:43;;;;;;;10.65;9.28;;;29.00;61.30;;;;;;1870580;75;21473;-47
2021/08/24 10:31:33;;;;;;;11.15;8.28;;;29.00;61.40;;;;;;1872075;77;21027;-48
2021/08/24 10:34:26;;;;;;;12.70;7.62;;;29.10;61.50;;;;;;1871996;77;21445;-49
2021/08/24 10:37:14;;;;;;;9.18;7.58;;;29.20;61.00;;;;;;1872301;77;21477;-45
2021/08/24 10:39:44;;;;;;;8.95;7.37;;;29.20;60.70;;;;;;1872653;76;21089;-47
2021/08/24 10:42:25;;;;;;;11.03;7.83;;;29.10;60.40;;;;;;1872651;77;21027;-45
2021/08/24 10:44:59;;;;;;;27.67;24.85;;;29.10;60.90;;;;;;1872619;77;21071;-47
2021/08/24 10:47:30;;;;;;;29.52;24.43;;;29.20;60.90;;;;;;1872652;77;21029;-47
2021/08/24 10:50:02;;;;;;;14.73;11.30;;;29.20;61.00;;;;;;1872368;76;21102;-45
2021/08/24 10:52:41;;;;;;;16.20;8.85;;;29.30;61.60;;;;;;1872532;77;21035;-49
2021/08/24 10:55:16;;;;;;;12.58;11.18;;;29.30;60.80;;;;;;1872451;76;21030;-48
2021/08/24 10:58:06;;;;;;;17.02;11.70;;;29.40;60.10;;;;;;1872578;77;21458;-48
2021/08/24 11:00:50;;;;;;;12.43;9.03;;;29.40;60.20;;;;;;1871648;76;21123;-44
2021/08/24 11:03:40;;;;;;;12.07;9.88;;;29.40;60.10;;;;;;1872832;77;21077;-47
2021/08/24 11:06:38;;;;;;;13.32;8.18;;;29.50;60.70;;;;;;1872529;77;21043;-48
2021/08/24 11:09:10;;;;;;;11.35;8.25;;;29.50;60.50;;;;;;1872419;75;21106;-47
2021/08/24 11:11:51;;;;;;;12.73;8.45;;;29.50;59.60;;;;;;1872052;76;21512;-46
2021/08/24 11:14:41;;;;;;;15.83;8.20;;;29.50;59.40;;;;;;1872126;75;21062;-46
2021/08/24 11:17:13;;;;;;;9.65;6.10;;;29.50;59.30;;;;;;1872611;76;21055;-49
2021/08/24 11:19:57;;;;;;;19.55;14.50;;;29.50;58.60;;;;;;1872009;76;21105;-46
2021/08/24 11:22:52;;;;;;;7.87;7.08;;;29.50;58.80;;;;;;1872742;75;21504;-46
2021/08/24 11:25:24;;;;;;;11.00;6.33;;;29.50;58.90;;;;;;1872719;77;21105;-49
2021/08/24 11:28:00;;;;;;;14.83;6.47;;;29.60;58.30;;;;;;1872489;76;21027;-48
2021/08/24 11:30:41;;;;;;;7.67;6.15;;;29.60;58.80;;;;;;1871683;76;21054;-49
2021/08/24 11:33:13;;;;;;;9.70;7.08;;;29.60;58.60;;;;;;1872561;75;21582;-46
2021/08/24 11:36:00;;;;;;;8.58;6.10;;;29.70;59.00;;;;;;1871036;76;21097;-50
2021/08/24 11:38:32;;;;;;;18.62;10.82;;;29.80;58.40;;;;;;1872593;77;21321;-49
2021/08/24 11:41:03;;;;;;;7.65;6.03;;;29.70;58.60;;;;;;1868829;76;21488;-48
2021/08/24 11:43:35;;;;;;;8.63;7.65;;;29.80;58.60;;;;;;1872581;77;21121;-48
2021/08/24 11:46:10;;;;;;;11.90;6.35;;;29.80;58.20;;;;;;1872464;76;21050;-48
2021/08/24 11:48:42;;;;;;;9.95;6.22;;;29.90;58.60;;;;;;1872483;75;21148;-49
2021/08/24 11:51:17;;;;;;;7.62;6.37;;;29.90;58.40;;;;;;1872645;77;21015;-46
2021/08/24 11:54:01;;;;;;;8.73;6.17;;;30.00;58.30;;;;;;1872499;77;21027;-50
2021/08/24 11:56:48;;;;;;;10.90;6.20;;;30.00;58.40;;;;;;1872449;76;21039;-50
2021/08/24 11:59:25;;;;;;;7.58;5.08;;;30.00;58.50;;;;;;1872499;76;21160;-49
2021/08/24 12:01:55;;;;;;;9.48;5.78;;;30.00;57.90;;;;;;1870503;76;21085;-49
2021/08/24 12:04:26;;;;;;;8.28;6.12;;;30.00;58.30;;;;;;1872538;77;21035;-48
2021/08/24 12:07:01;;;;;;;8.90;6.37;;;30.00;58.90;;;;;;1872670;75;21438;-50
2021/08/24 12:09:51;;;;;;;8.93;5.35;;;30.00;58.50;;;;;;1872571;76;21158;-50
2021/08/24 12:12:49;;;;;;;6.80;5.87;;;30.00;58.00;;;;;;1872644;75;21112;-49
2021/08/24 12:15:30;;;;;;;8.43;5.15;;;30.00;58.20;;;;;;1872805;77;21066;-49
2021/08/24 12:18:20;;;;;;;9.25;4.80;;;30.10;58.60;;;;;;1872603;77;21018;-47
2021/08/24 12:21:01;;;;;;;7.97;5.00;;;30.10;57.90;;;;;;1872492;77;21445;-49
2021/08/24 12:23:42;;;;;;;10.65;8.10;;;30.10;57.30;;;;;;1867445;77;21082;-49
2021/08/24 12:26:32;;;;;;;7.12;4.85;;;30.10;57.60;;;;;;1872592;77;21120;-46
2021/08/24 12:29:12;;;;;;;10.53;5.60;;;30.10;57.50;;;;;;1872589;75;21128;-50
2021/08/24 12:31:45;;;;;;;7.00;4.97;;;30.10;57.60;;;;;;1867515;76;21113;-49
2021/08/24 12:34:35;;;;;;;6.60;4.85;;;30.10;57.50;;;;;;1872633;75;21109;-49
2021/08/24 12:37:06;;;;;;;6.55;5.28;;;30.10;57.50;;;;;;1872674;77;21543;-49
2021/08/24 12:39:38;;;;;;;8.03;5.12;;;30.10;57.50;;;;;;1870971;77;21092;-46
2021/08/24 12:42:29;;;;;;;6.37;5.15;;;30.10;57.50;;;;;;1872664;77;21026;-49
2021/08/24 12:45:02;;;;;;;7.25;4.72;;;30.20;57.20;;;;;;1872524;76;21023;-46
2021/08/24 12:47:46;;;;;;;6.08;5.00;;;30.20;57.20;;;;;;1872732;77;21485;-47
2021/08/24 12:50:18;;;;;;;11.88;5.55;;;30.20;56.80;;;;;;1870449;77;21027;-49
2021/08/24 12:52:51;;;;;;;8.05;4.83;;;30.20;57.30;;;;;;1872675;77;21505;-48
2021/08/24 12:55:37;;;;;;;5.17;4.55;;;30.30;57.10;;;;;;1872695;77;21089;-48
2021/08/24 12:58:27;;;;;;;8.68;4.28;;;30.30;57.50;;;;;;1872661;77;21042;-47
2021/08/24 13:01:24;;;;;;;6.10;4.62;;;30.30;56.50;;;;;;1872547;77;21000;-46
2021/08/24 13:04:04;;;;;;;9.33;5.35;;;30.30;56.60;;;;;;1872538;77;21019;-50